sensor_id;sensor_type;location;lat;lon;timestamp;temperature;humidity
9816;DHT22;4947;44.526;11.360;2023-03-31T00:00:20;12.80;99.90
9816;DHT22;4947;44.526;11.360;2023-03-31T00:02:48;12.90;99.90
9816;DHT22;4947;44.526;11.360;2023-03-31T00:05:18;13.00;99.90
9816;DHT22;4947;44.526;11.360;2023-03-31T00:07:46;13.20;99.20
9816;DHT22;4947;44.526;11.360;2023-03-31T00:10:15;13.30;99.30
9816;DHT22;4947;44.526;11.360;2023-03-31T00:12:44;13.30;99.90
9816;DHT22;4947;44.526;11.360;2023-03-31T00:15:14;13.20;99.90
9816;DHT22;4947;44.526;11.360;2023-03-31T00:17:42;13.30;99.60
9816;DHT22;4947;44.526;11.360;2023-03-31T00:20:10;13.40;99.10
9816;DHT22;4947;44.526;11.360;2023-03-31T00:22:40;13.40;99.90
9816;DHT22;4947;44.526;11.360;2023-03-31T00:25:11;13.40;99.50
9816;DHT22;4947;44.526;11.360;2023-03-31T00:27:41;13.30;99.90
9816;DHT22;4947;44.526;11.360;2023-03-31T00:30:09;13.30;99.90
9816;DHT22;4947;44.526;11.360;2023-03-31T00:32:41;13.20;99.90
9816;DHT22;4947;44.526;11.360;2023-03-31T00:35:09;13.20;99.90
9816;DHT22;4947;44.526;11.360;2023-03-31T00:37:36;13.10;99.90
9816;DHT22;4947;44.526;11.360;2023-03-31T00:40:05;13.10;99.90
9816;DHT22;4947;44.526;11.360;2023-03-31T00:42:38;13.10;99.90
9816;DHT22;4947;44.526;11.360;2023-03-31T00:45:27;13.10;99.90
9816;DHT22;4947;44.526;11.360;2023-03-31T00:48:02;13.10;99.90
9816;DHT22;4947;44.526;11.360;2023-03-31T00:50:39;13.10;99.90
9816;DHT22;4947;44.526;11.360;2023-03-31T00:53:10;13.10;99.90
9816;DHT22;4947;44.526;11.360;2023-03-31T00:55:42;13.10;99.90
9816;DHT22;4947;44.526;11.360;2023-03-31T00:58:11;13.20;99.90
9816;DHT22;4947;44.526;11.360;2023-03-31T01:00:43;13.20;99.90
9816;DHT22;4947;44.526;11.360;2023-03-31T01:03:14;13.30;99.90
9816;DHT22;4947;44.526;11.360;2023-03-31T01:05:45;13.20;99.90
9816;DHT22;4947;44.526;11.360;2023-03-31T01:08:15;13.30;99.90
9816;DHT22;4947;44.526;11.360;2023-03-31T01:10:49;13.40;99.90
9816;DHT22;4947;44.526;11.360;2023-03-31T01:13:18;13.40;99.90
9816;DHT22;4947;44.526;11.360;2023-03-31T01:15:46;13.40;99.90
9816;DHT22;4947;44.526;11.360;2023-03-31T01:18:16;13.40;99.90
9816;DHT22;4947;44.526;11.360;2023-03-31T01:21:05;13.40;99.90
9816;DHT22;4947;44.526;11.360;2023-03-31T01:24:01;13.30;99.90
9816;DHT22;4947;44.526;11.360;2023-03-31T01:33:08;13.40;99.90
9816;DHT22;4947;44.526;11.360;2023-03-31T01:35:58;13.30;99.90
9816;DHT22;4947;44.526;11.360;2023-03-31T01:41:48;13.40;99.90
9816;DHT22;4947;44.526;11.360;2023-03-31T01:44:24;13.40;99.90
9816;DHT22;4947;44.526;11.360;2023-03-31T01:46:57;13.40;99.90
9816;DHT22;4947;44.526;11.360;2023-03-31T01:49:30;13.40;99.90
9816;DHT22;4947;44.526;11.360;2023-03-31T01:52:03;13.40;99.90
9816;DHT22;4947;44.526;11.360;2023-03-31T01:54:37;13.40;99.90
9816;DHT22;4947;44.526;11.360;2023-03-31T01:57:11;13.50;99.90
9816;DHT22;4947;44.526;11.360;2023-03-31T01:59:46;13.50;99.90
9816;DHT22;4947;44.526;11.360;2023-03-31T02:02:19;13.50;99.90
9816;DHT22;4947;44.526;11.360;2023-03-31T02:04:49;13.40;99.90
9816;DHT22;4947;44.526;11.360;2023-03-31T02:07:21;13.30;99.90
9816;DHT22;4947;44.526;11.360;2023-03-31T02:09:55;13.30;99.90
9816;DHT22;4947;44.526;11.360;2023-03-31T02:12:28;13.30;99.90
9816;DHT22;4947;44.526;11.360;2023-03-31T02:14:59;13.20;99.90
9816;DHT22;4947;44.526;11.360;2023-03-31T02:17:28;13.20;99.90
9816;DHT22;4947;44.526;11.360;2023-03-31T02:20:02;13.10;99.90
9816;DHT22;4947;44.526;11.360;2023-03-31T02:22:35;13.00;99.90
9816;DHT22;4947;44.526;11.360;2023-03-31T02:25:05;12.90;99.90
9816;DHT22;4947;44.526;11.360;2023-03-31T02:27:39;12.80;99.90
9816;DHT22;4947;44.526;11.360;2023-03-31T02:30:09;12.70;99.90
9816;DHT22;4947;44.526;11.360;2023-03-31T02:32:39;12.70;99.90
9816;DHT22;4947;44.526;11.360;2023-03-31T02:35:10;12.60;99.90
9816;DHT22;4947;44.526;11.360;2023-03-31T02:37:39;12.50;99.90
9816;DHT22;4947;44.526;11.360;2023-03-31T02:40:10;12.50;99.90
9816;DHT22;4947;44.526;11.360;2023-03-31T02:42:41;12.50;99.90
9816;DHT22;4947;44.526;11.360;2023-03-31T02:45:40;12.50;99.90
9816;DHT22;4947;44.526;11.360;2023-03-31T02:48:10;12.40;99.90
9816;DHT22;4947;44.526;11.360;2023-03-31T02:53:39;12.30;99.90
9816;DHT22;4947;44.526;11.360;2023-03-31T02:56:33;12.10;99.90
9816;DHT22;4947;44.526;11.360;2023-03-31T02:59:30;12.00;99.90
9816;DHT22;4947;44.526;11.360;2023-03-31T03:02:09;11.90;99.90
9816;DHT22;4947;44.526;11.360;2023-03-31T03:04:57;11.80;99.90
9816;DHT22;4947;44.526;11.360;2023-03-31T03:07:35;11.80;99.90
9816;DHT22;4947;44.526;11.360;2023-03-31T03:10:06;11.90;99.90
9816;DHT22;4947;44.526;11.360;2023-03-31T03:12:41;11.80;99.90
9816;DHT22;4947;44.526;11.360;2023-03-31T03:15:16;11.90;99.90
9816;DHT22;4947;44.526;11.360;2023-03-31T03:17:47;11.70;99.90
9816;DHT22;4947;44.526;11.360;2023-03-31T03:20:19;11.60;99.90
9816;DHT22;4947;44.526;11.360;2023-03-31T03:22:47;11.60;99.90
9816;DHT22;4947;44.526;11.360;2023-03-31T03:25:15;11.50;99.90
9816;DHT22;4947;44.526;11.360;2023-03-31T03:27:45;11.50;99.90
9816;DHT22;4947;44.526;11.360;2023-03-31T03:30:15;11.50;99.90
9816;DHT22;4947;44.526;11.360;2023-03-31T03:32:42;11.50;99.90
9816;DHT22;4947;44.526;11.360;2023-03-31T03:35:11;11.50;99.90
9816;DHT22;4947;44.526;11.360;2023-03-31T03:37:39;11.40;99.90
9816;DHT22;4947;44.526;11.360;2023-03-31T03:40:07;11.40;99.90
9816;DHT22;4947;44.526;11.360;2023-03-31T03:42:35;11.30;99.90
9816;DHT22;4947;44.526;11.360;2023-03-31T03:45:04;11.20;99.90
9816;DHT22;4947;44.526;11.360;2023-03-31T03:47:34;11.20;99.90
9816;DHT22;4947;44.526;11.360;2023-03-31T03:50:02;11.10;99.90
9816;DHT22;4947;44.526;11.360;2023-03-31T03:52:30;11.10;99.90
9816;DHT22;4947;44.526;11.360;2023-03-31T03:54:57;10.80;99.90
9816;DHT22;4947;44.526;11.360;2023-03-31T03:57:26;10.70;99.90
9816;DHT22;4947;44.526;11.360;2023-03-31T03:59:55;10.60;99.90
9816;DHT22;4947;44.526;11.360;2023-03-31T04:02:25;10.50;99.90
9816;DHT22;4947;44.526;11.360;2023-03-31T04:04:56;10.40;99.90
9816;DHT22;4947;44.526;11.360;2023-03-31T04:07:24;10.50;99.90
9816;DHT22;4947;44.526;11.360;2023-03-31T04:09:51;10.50;99.90
9816;DHT22;4947;44.526;11.360;2023-03-31T04:12:19;10.50;99.90
9816;DHT22;4947;44.526;11.360;2023-03-31T04:14:46;10.50;99.90
9816;DHT22;4947;44.526;11.360;2023-03-31T04:17:13;10.50;99.90
9816;DHT22;4947;44.526;11.360;2023-03-31T04:19:58;10.70;99.90
9816;DHT22;4947;44.526;11.360;2023-03-31T04:22:28;10.70;99.90
9816;DHT22;4947;44.526;11.360;2023-03-31T04:25:00;10.70;99.90
9816;DHT22;4947;44.526;11.360;2023-03-31T04:27:28;10.70;99.90
9816;DHT22;4947;44.526;11.360;2023-03-31T04:29:55;10.70;99.90
9816;DHT22;4947;44.526;11.360;2023-03-31T04:32:23;10.70;99.90
9816;DHT22;4947;44.526;11.360;2023-03-31T04:34:51;10.80;99.90
9816;DHT22;4947;44.526;11.360;2023-03-31T04:37:29;10.70;99.90
9816;DHT22;4947;44.526;11.360;2023-03-31T04:39:59;10.80;99.90
9816;DHT22;4947;44.526;11.360;2023-03-31T04:42:33;10.80;99.90
9816;DHT22;4947;44.526;11.360;2023-03-31T04:45:00;10.80;99.90
9816;DHT22;4947;44.526;11.360;2023-03-31T04:47:28;10.70;99.90
9816;DHT22;4947;44.526;11.360;2023-03-31T04:49:55;10.60;99.90
9816;DHT22;4947;44.526;11.360;2023-03-31T04:52:23;10.60;99.90
9816;DHT22;4947;44.526;11.360;2023-03-31T04:54:53;10.60;99.90
9816;DHT22;4947;44.526;11.360;2023-03-31T04:57:20;10.70;99.90
9816;DHT22;4947;44.526;11.360;2023-03-31T04:59:48;10.80;99.90
9816;DHT22;4947;44.526;11.360;2023-03-31T05:02:16;10.80;99.90
9816;DHT22;4947;44.526;11.360;2023-03-31T05:04:48;10.80;99.90
9816;DHT22;4947;44.526;11.360;2023-03-31T05:07:16;10.80;99.90
9816;DHT22;4947;44.526;11.360;2023-03-31T05:09:44;10.80;99.90
9816;DHT22;4947;44.526;11.360;2023-03-31T05:12:14;10.80;99.90
9816;DHT22;4947;44.526;11.360;2023-03-31T05:14:41;10.80;99.90
9816;DHT22;4947;44.526;11.360;2023-03-31T05:17:09;10.90;99.90
9816;DHT22;4947;44.526;11.360;2023-03-31T05:19:36;10.90;99.90
9816;DHT22;4947;44.526;11.360;2023-03-31T05:22:05;10.90;99.90
9816;DHT22;4947;44.526;11.360;2023-03-31T05:24:33;10.90;99.90
9816;DHT22;4947;44.526;11.360;2023-03-31T05:27:00;10.90;99.90
9816;DHT22;4947;44.526;11.360;2023-03-31T05:29:30;10.90;99.90
9816;DHT22;4947;44.526;11.360;2023-03-31T05:31:58;10.90;99.90
9816;DHT22;4947;44.526;11.360;2023-03-31T05:34:26;11.00;99.90
9816;DHT22;4947;44.526;11.360;2023-03-31T05:36:54;10.90;99.90
9816;DHT22;4947;44.526;11.360;2023-03-31T05:39:21;10.90;99.90
9816;DHT22;4947;44.526;11.360;2023-03-31T05:41:49;10.90;99.90
9816;DHT22;4947;44.526;11.360;2023-03-31T05:44:17;11.00;99.90
9816;DHT22;4947;44.526;11.360;2023-03-31T05:46:46;11.00;99.90
9816;DHT22;4947;44.526;11.360;2023-03-31T05:49:14;11.10;99.90
9816;DHT22;4947;44.526;11.360;2023-03-31T05:51:42;11.10;99.90
9816;DHT22;4947;44.526;11.360;2023-03-31T05:54:10;11.10;99.90
9816;DHT22;4947;44.526;11.360;2023-03-31T05:56:39;11.20;99.90
9816;DHT22;4947;44.526;11.360;2023-03-31T05:59:07;11.30;99.90
9816;DHT22;4947;44.526;11.360;2023-03-31T06:01:34;11.30;99.90
9816;DHT22;4947;44.526;11.360;2023-03-31T06:04:03;11.30;99.90
9816;DHT22;4947;44.526;11.360;2023-03-31T06:06:30;11.40;99.90
9816;DHT22;4947;44.526;11.360;2023-03-31T06:08:59;11.50;99.90
9816;DHT22;4947;44.526;11.360;2023-03-31T06:11:27;11.60;99.90
9816;DHT22;4947;44.526;11.360;2023-03-31T06:13:54;11.60;99.90
9816;DHT22;4947;44.526;11.360;2023-03-31T06:16:23;11.70;99.90
9816;DHT22;4947;44.526;11.360;2023-03-31T06:18:50;11.70;99.90
9816;DHT22;4947;44.526;11.360;2023-03-31T06:21:20;11.80;99.90
9816;DHT22;4947;44.526;11.360;2023-03-31T06:23:48;11.80;99.90
9816;DHT22;4947;44.526;11.360;2023-03-31T06:26:19;11.90;99.90
9816;DHT22;4947;44.526;11.360;2023-03-31T06:28:47;11.70;99.90
9816;DHT22;4947;44.526;11.360;2023-03-31T06:31:16;11.90;99.90
9816;DHT22;4947;44.526;11.360;2023-03-31T06:33:45;11.90;99.90
9816;DHT22;4947;44.526;11.360;2023-03-31T06:36:14;12.10;99.90
9816;DHT22;4947;44.526;11.360;2023-03-31T06:38:44;12.20;99.90
9816;DHT22;4947;44.526;11.360;2023-03-31T06:41:16;12.30;99.90
9816;DHT22;4947;44.526;11.360;2023-03-31T06:43:45;12.50;99.90
9816;DHT22;4947;44.526;11.360;2023-03-31T06:46:13;12.50;99.90
9816;DHT22;4947;44.526;11.360;2023-03-31T06:48:41;12.70;99.90
9816;DHT22;4947;44.526;11.360;2023-03-31T06:51:09;12.90;99.90
9816;DHT22;4947;44.526;11.360;2023-03-31T06:53:37;13.10;99.90
9816;DHT22;4947;44.526;11.360;2023-03-31T06:56:07;13.20;99.90
9816;DHT22;4947;44.526;11.360;2023-03-31T06:58:35;13.00;99.90
9816;DHT22;4947;44.526;11.360;2023-03-31T07:01:04;13.10;99.90
9816;DHT22;4947;44.526;11.360;2023-03-31T07:03:32;13.20;99.90
9816;DHT22;4947;44.526;11.360;2023-03-31T07:06:00;13.40;99.90
9816;DHT22;4947;44.526;11.360;2023-03-31T07:08:27;13.50;99.90
9816;DHT22;4947;44.526;11.360;2023-03-31T07:10:56;13.30;99.90
9816;DHT22;4947;44.526;11.360;2023-03-31T07:13:26;13.70;99.90
9816;DHT22;4947;44.526;11.360;2023-03-31T07:15:54;14.00;99.90
9816;DHT22;4947;44.526;11.360;2023-03-31T07:18:22;14.20;99.90
9816;DHT22;4947;44.526;11.360;2023-03-31T07:20:50;14.30;99.90
9816;DHT22;4947;44.526;11.360;2023-03-31T07:23:19;14.60;99.90
9816;DHT22;4947;44.526;11.360;2023-03-31T07:25:47;15.00;97.70
9816;DHT22;4947;44.526;11.360;2023-03-31T07:28:15;15.30;95.50
9816;DHT22;4947;44.526;11.360;2023-03-31T07:30:44;15.60;92.40
9816;DHT22;4947;44.526;11.360;2023-03-31T07:33:11;15.90;90.00
9816;DHT22;4947;44.526;11.360;2023-03-31T07:35:39;16.20;88.40
9816;DHT22;4947;44.526;11.360;2023-03-31T07:38:07;16.30;86.40
9816;DHT22;4947;44.526;11.360;2023-03-31T07:40:35;16.80;84.60
9816;DHT22;4947;44.526;11.360;2023-03-31T07:43:03;17.00;88.30
9816;DHT22;4947;44.526;11.360;2023-03-31T07:45:32;16.80;90.80
9816;DHT22;4947;44.526;11.360;2023-03-31T07:48:01;16.50;91.70
9816;DHT22;4947;44.526;11.360;2023-03-31T07:50:29;16.20;92.80
9816;DHT22;4947;44.526;11.360;2023-03-31T07:52:57;16.10;95.00
9816;DHT22;4947;44.526;11.360;2023-03-31T07:55:25;16.20;96.20
9816;DHT22;4947;44.526;11.360;2023-03-31T07:57:52;16.50;95.00
9816;DHT22;4947;44.526;11.360;2023-03-31T08:00:20;16.60;93.60
9816;DHT22;4947;44.526;11.360;2023-03-31T08:02:51;17.30;89.90
9816;DHT22;4947;44.526;11.360;2023-03-31T08:05:20;17.70;87.30
9816;DHT22;4947;44.526;11.360;2023-03-31T08:07:49;18.20;83.00
9816;DHT22;4947;44.526;11.360;2023-03-31T08:10:19;18.50;78.50
9816;DHT22;4947;44.526;11.360;2023-03-31T08:12:48;18.20;78.40
9816;DHT22;4947;44.526;11.360;2023-03-31T08:15:16;17.80;80.80
9816;DHT22;4947;44.526;11.360;2023-03-31T08:17:44;17.50;82.10
9816;DHT22;4947;44.526;11.360;2023-03-31T08:20:12;17.70;81.10
9816;DHT22;4947;44.526;11.360;2023-03-31T08:22:41;17.90;80.40
9816;DHT22;4947;44.526;11.360;2023-03-31T08:25:09;17.90;79.70
9816;DHT22;4947;44.526;11.360;2023-03-31T08:27:39;17.70;78.90
9816;DHT22;4947;44.526;11.360;2023-03-31T08:30:08;17.50;78.70
9816;DHT22;4947;44.526;11.360;2023-03-31T08:32:36;17.40;75.90
9816;DHT22;4947;44.526;11.360;2023-03-31T08:35:05;17.00;81.50
9816;DHT22;4947;44.526;11.360;2023-03-31T08:37:33;17.20;81.40
9816;DHT22;4947;44.526;11.360;2023-03-31T08:40:04;17.40;82.20
9816;DHT22;4947;44.526;11.360;2023-03-31T08:42:36;17.60;81.70
9816;DHT22;4947;44.526;11.360;2023-03-31T08:45:10;17.70;82.80
9816;DHT22;4947;44.526;11.360;2023-03-31T08:47:42;17.70;83.30
9816;DHT22;4947;44.526;11.360;2023-03-31T08:50:15;17.60;85.80
9816;DHT22;4947;44.526;11.360;2023-03-31T08:52:46;17.80;83.50
9816;DHT22;4947;44.526;11.360;2023-03-31T08:55:21;17.90;82.90
9816;DHT22;4947;44.526;11.360;2023-03-31T08:57:55;18.10;86.40
9816;DHT22;4947;44.526;11.360;2023-03-31T09:00:23;18.60;84.40
9816;DHT22;4947;44.526;11.360;2023-03-31T09:02:55;18.70;80.10
9816;DHT22;4947;44.526;11.360;2023-03-31T09:05:36;18.60;80.60
9816;DHT22;4947;44.526;11.360;2023-03-31T09:08:12;18.50;77.70
9816;DHT22;4947;44.526;11.360;2023-03-31T09:10:50;18.60;81.80
9816;DHT22;4947;44.526;11.360;2023-03-31T09:13:52;19.00;85.00
9816;DHT22;4947;44.526;11.360;2023-03-31T09:16:24;18.80;77.90
9816;DHT22;4947;44.526;11.360;2023-03-31T09:19:01;19.40;74.90
9816;DHT22;4947;44.526;11.360;2023-03-31T09:21:31;19.90;73.50
9816;DHT22;4947;44.526;11.360;2023-03-31T09:24:04;19.90;75.90
9816;DHT22;4947;44.526;11.360;2023-03-31T09:26:39;20.00;72.70
9816;DHT22;4947;44.526;11.360;2023-03-31T09:29:12;20.60;73.70
9816;DHT22;4947;44.526;11.360;2023-03-31T09:31:43;21.10;73.70
9816;DHT22;4947;44.526;11.360;2023-03-31T09:34:14;21.60;68.20
9816;DHT22;4947;44.526;11.360;2023-03-31T09:36:43;21.50;66.00
9816;DHT22;4947;44.526;11.360;2023-03-31T09:39:12;21.90;71.50
9816;DHT22;4947;44.526;11.360;2023-03-31T09:41:44;22.40;68.10
9816;DHT22;4947;44.526;11.360;2023-03-31T09:44:25;21.80;67.50
9816;DHT22;4947;44.526;11.360;2023-03-31T09:46:54;21.50;67.80
9816;DHT22;4947;44.526;11.360;2023-03-31T09:49:24;21.50;68.90
9816;DHT22;4947;44.526;11.360;2023-03-31T09:52:01;21.30;68.50
9816;DHT22;4947;44.526;11.360;2023-03-31T09:54:35;19.80;74.50
9816;DHT22;4947;44.526;11.360;2023-03-31T09:57:22;19.90;76.40
9816;DHT22;4947;44.526;11.360;2023-03-31T09:59:51;20.00;78.60
9816;DHT22;4947;44.526;11.360;2023-03-31T10:02:33;20.40;78.90
9816;DHT22;4947;44.526;11.360;2023-03-31T10:05:03;20.60;79.90
9816;DHT22;4947;44.526;11.360;2023-03-31T10:07:32;20.70;77.20
9816;DHT22;4947;44.526;11.360;2023-03-31T10:09:59;20.60;76.10
9816;DHT22;4947;44.526;11.360;2023-03-31T10:12:29;20.30;74.10
9816;DHT22;4947;44.526;11.360;2023-03-31T10:15:17;19.90;76.30
9816;DHT22;4947;44.526;11.360;2023-03-31T10:17:46;20.20;82.00
9816;DHT22;4947;44.526;11.360;2023-03-31T10:20:22;20.30;81.80
9816;DHT22;4947;44.526;11.360;2023-03-31T10:22:53;20.20;73.20
9816;DHT22;4947;44.526;11.360;2023-03-31T10:25:26;19.60;81.20
9816;DHT22;4947;44.526;11.360;2023-03-31T10:27:55;19.50;81.40
9816;DHT22;4947;44.526;11.360;2023-03-31T10:30:25;19.50;82.10
9816;DHT22;4947;44.526;11.360;2023-03-31T10:32:56;19.70;79.10
9816;DHT22;4947;44.526;11.360;2023-03-31T10:35:26;19.90;76.80
9816;DHT22;4947;44.526;11.360;2023-03-31T10:37:57;19.90;79.70
9816;DHT22;4947;44.526;11.360;2023-03-31T10:40:27;19.70;80.30
9816;DHT22;4947;44.526;11.360;2023-03-31T10:43:03;19.70;83.40
9816;DHT22;4947;44.526;11.360;2023-03-31T10:45:36;19.70;77.70
9816;DHT22;4947;44.526;11.360;2023-03-31T10:48:16;19.80;78.80
9816;DHT22;4947;44.526;11.360;2023-03-31T10:50:44;19.50;80.60
9816;DHT22;4947;44.526;11.360;2023-03-31T10:53:13;19.50;82.90
9816;DHT22;4947;44.526;11.360;2023-03-31T10:55:48;19.90;78.30
9816;DHT22;4947;44.526;11.360;2023-03-31T10:58:30;19.80;80.10
9816;DHT22;4947;44.526;11.360;2023-03-31T11:01:09;19.80;78.30
9816;DHT22;4947;44.526;11.360;2023-03-31T11:03:53;19.80;86.00
9816;DHT22;4947;44.526;11.360;2023-03-31T11:06:28;20.10;78.60
9816;DHT22;4947;44.526;11.360;2023-03-31T11:09:05;20.00;77.50
9816;DHT22;4947;44.526;11.360;2023-03-31T11:11:56;20.20;76.00
9816;DHT22;4947;44.526;11.360;2023-03-31T11:14:36;20.00;79.70
9816;DHT22;4947;44.526;11.360;2023-03-31T11:17:16;20.40;82.50
9816;DHT22;4947;44.526;11.360;2023-03-31T11:19:54;20.80;76.80
9816;DHT22;4947;44.526;11.360;2023-03-31T11:22:30;21.00;73.80
9816;DHT22;4947;44.526;11.360;2023-03-31T11:25:18;21.10;76.00
9816;DHT22;4947;44.526;11.360;2023-03-31T11:28:02;20.90;80.20
9816;DHT22;4947;44.526;11.360;2023-03-31T11:30:43;21.20;73.20
9816;DHT22;4947;44.526;11.360;2023-03-31T11:33:30;21.40;74.00
9816;DHT22;4947;44.526;11.360;2023-03-31T11:36:10;21.10;72.50
9816;DHT22;4947;44.526;11.360;2023-03-31T11:38:50;20.90;73.10
9816;DHT22;4947;44.526;11.360;2023-03-31T11:41:22;20.50;70.70
9816;DHT22;4947;44.526;11.360;2023-03-31T11:43:56;20.50;71.20
9816;DHT22;4947;44.526;11.360;2023-03-31T11:46:32;20.60;74.40
9816;DHT22;4947;44.526;11.360;2023-03-31T11:49:03;20.80;72.90
9816;DHT22;4947;44.526;11.360;2023-03-31T11:51:39;20.70;69.10
9816;DHT22;4947;44.526;11.360;2023-03-31T11:54:09;20.70;70.10
9816;DHT22;4947;44.526;11.360;2023-03-31T11:56:42;20.90;74.20
9816;DHT22;4947;44.526;11.360;2023-03-31T11:59:13;21.10;69.70
9816;DHT22;4947;44.526;11.360;2023-03-31T12:01:46;21.10;72.50
9816;DHT22;4947;44.526;11.360;2023-03-31T12:04:26;20.60;72.00
9816;DHT22;4947;44.526;11.360;2023-03-31T12:06:59;20.80;73.20
9816;DHT22;4947;44.526;11.360;2023-03-31T12:09:35;20.70;74.30
9816;DHT22;4947;44.526;11.360;2023-03-31T12:12:09;20.70;71.90
9816;DHT22;4947;44.526;11.360;2023-03-31T12:14:42;20.60;73.70
9816;DHT22;4947;44.526;11.360;2023-03-31T12:17:14;20.50;72.70
9816;DHT22;4947;44.526;11.360;2023-03-31T12:19:46;20.40;74.80
9816;DHT22;4947;44.526;11.360;2023-03-31T12:22:17;20.20;75.80
9816;DHT22;4947;44.526;11.360;2023-03-31T12:24:47;20.10;79.20
9816;DHT22;4947;44.526;11.360;2023-03-31T12:27:17;20.00;83.80
9816;DHT22;4947;44.526;11.360;2023-03-31T12:29:53;19.90;81.80
9816;DHT22;4947;44.526;11.360;2023-03-31T12:32:27;19.90;83.20
9816;DHT22;4947;44.526;11.360;2023-03-31T12:34:58;19.90;83.80
9816;DHT22;4947;44.526;11.360;2023-03-31T12:37:53;19.90;86.30
9816;DHT22;4947;44.526;11.360;2023-03-31T12:40:36;19.90;86.90
9816;DHT22;4947;44.526;11.360;2023-03-31T12:43:24;20.00;83.70
9816;DHT22;4947;44.526;11.360;2023-03-31T12:46:08;20.10;84.30
9816;DHT22;4947;44.526;11.360;2023-03-31T12:49:01;19.90;85.80
9816;DHT22;4947;44.526;11.360;2023-03-31T12:51:54;20.00;87.80
9816;DHT22;4947;44.526;11.360;2023-03-31T12:57:23;19.90;86.40
9816;DHT22;4947;44.526;11.360;2023-03-31T13:00:24;19.70;82.30
9816;DHT22;4947;44.526;11.360;2023-03-31T13:05:55;20.20;87.40
9816;DHT22;4947;44.526;11.360;2023-03-31T13:08:51;20.40;83.60
9816;DHT22;4947;44.526;11.360;2023-03-31T13:11:21;20.40;81.40
9816;DHT22;4947;44.526;11.360;2023-03-31T13:13:58;20.50;81.30
9816;DHT22;4947;44.526;11.360;2023-03-31T13:16:27;20.60;81.70
9816;DHT22;4947;44.526;11.360;2023-03-31T13:18:55;20.20;79.10
9816;DHT22;4947;44.526;11.360;2023-03-31T13:21:25;19.90;80.00
9816;DHT22;4947;44.526;11.360;2023-03-31T13:23:53;19.80;81.10
9816;DHT22;4947;44.526;11.360;2023-03-31T13:26:39;20.10;81.20
9816;DHT22;4947;44.526;11.360;2023-03-31T13:29:24;20.00;84.10
9816;DHT22;4947;44.526;11.360;2023-03-31T13:32:17;20.10;79.20
9816;DHT22;4947;44.526;11.360;2023-03-31T13:34:49;20.20;79.50
9816;DHT22;4947;44.526;11.360;2023-03-31T13:40:31;20.20;78.50
9816;DHT22;4947;44.526;11.360;2023-03-31T13:46:14;20.10;82.00
9816;DHT22;4947;44.526;11.360;2023-03-31T13:48:52;20.00;80.50
9816;DHT22;4947;44.526;11.360;2023-03-31T13:51:40;20.10;80.40
9816;DHT22;4947;44.526;11.360;2023-03-31T13:54:58;19.90;82.40
9816;DHT22;4947;44.526;11.360;2023-03-31T14:00:49;19.40;85.50
9816;DHT22;4947;44.526;11.360;2023-03-31T14:03:31;19.40;86.90
9816;DHT22;4947;44.526;11.360;2023-03-31T14:06:04;19.50;87.00
9816;DHT22;4947;44.526;11.360;2023-03-31T14:08:46;19.60;87.50
9816;DHT22;4947;44.526;11.360;2023-03-31T14:11:21;19.60;84.80
9816;DHT22;4947;44.526;11.360;2023-03-31T14:13:59;19.70;84.60
9816;DHT22;4947;44.526;11.360;2023-03-31T14:16:27;19.80;87.20
9816;DHT22;4947;44.526;11.360;2023-03-31T14:19:03;19.50;84.10
9816;DHT22;4947;44.526;11.360;2023-03-31T14:21:36;19.60;85.90
9816;DHT22;4947;44.526;11.360;2023-03-31T14:24:14;19.60;86.30
9816;DHT22;4947;44.526;11.360;2023-03-31T14:26:57;19.60;88.10
9816;DHT22;4947;44.526;11.360;2023-03-31T14:29:30;19.70;85.30
9816;DHT22;4947;44.526;11.360;2023-03-31T14:32:09;19.70;85.90
9816;DHT22;4947;44.526;11.360;2023-03-31T14:34:48;19.50;86.10
9816;DHT22;4947;44.526;11.360;2023-03-31T14:37:19;19.50;85.80
9816;DHT22;4947;44.526;11.360;2023-03-31T14:39:50;19.40;87.20
9816;DHT22;4947;44.526;11.360;2023-03-31T14:42:23;19.50;85.50
9816;DHT22;4947;44.526;11.360;2023-03-31T14:44:55;19.40;84.90
9816;DHT22;4947;44.526;11.360;2023-03-31T14:47:24;19.30;86.10
9816;DHT22;4947;44.526;11.360;2023-03-31T14:50:00;19.30;87.40
9816;DHT22;4947;44.526;11.360;2023-03-31T14:52:30;19.40;87.40
9816;DHT22;4947;44.526;11.360;2023-03-31T14:54:58;19.50;88.60
9816;DHT22;4947;44.526;11.360;2023-03-31T14:57:30;19.40;86.80
9816;DHT22;4947;44.526;11.360;2023-03-31T15:00:02;19.50;89.10
9816;DHT22;4947;44.526;11.360;2023-03-31T15:02:33;19.70;87.30
9816;DHT22;4947;44.526;11.360;2023-03-31T15:05:03;19.60;88.80
9816;DHT22;4947;44.526;11.360;2023-03-31T15:07:32;19.70;88.10
9816;DHT22;4947;44.526;11.360;2023-03-31T15:09:59;19.80;90.20
9816;DHT22;4947;44.526;11.360;2023-03-31T15:12:30;19.90;86.80
9816;DHT22;4947;44.526;11.360;2023-03-31T15:15:03;19.80;85.70
9816;DHT22;4947;44.526;11.360;2023-03-31T15:17:35;19.80;86.70
9816;DHT22;4947;44.526;11.360;2023-03-31T15:20:24;19.70;87.70
9816;DHT22;4947;44.526;11.360;2023-03-31T15:22:53;19.60;86.30
9816;DHT22;4947;44.526;11.360;2023-03-31T15:25:21;19.60;86.60
9816;DHT22;4947;44.526;11.360;2023-03-31T15:27:53;19.40;86.50
9816;DHT22;4947;44.526;11.360;2023-03-31T15:30:23;19.30;87.70
9816;DHT22;4947;44.526;11.360;2023-03-31T15:32:51;19.30;88.40
9816;DHT22;4947;44.526;11.360;2023-03-31T15:35:21;19.20;86.30
9816;DHT22;4947;44.526;11.360;2023-03-31T15:37:56;19.20;86.20
9816;DHT22;4947;44.526;11.360;2023-03-31T15:40:26;19.10;85.90
9816;DHT22;4947;44.526;11.360;2023-03-31T15:42:57;18.90;88.90
9816;DHT22;4947;44.526;11.360;2023-03-31T15:45:46;18.90;87.10
9816;DHT22;4947;44.526;11.360;2023-03-31T15:48:18;18.90;86.40
9816;DHT22;4947;44.526;11.360;2023-03-31T15:50:46;18.90;88.20
9816;DHT22;4947;44.526;11.360;2023-03-31T15:53:26;18.80;87.60
9816;DHT22;4947;44.526;11.360;2023-03-31T15:55:56;18.80;89.90
9816;DHT22;4947;44.526;11.360;2023-03-31T15:58:46;18.80;88.90
9816;DHT22;4947;44.526;11.360;2023-03-31T16:01:14;18.80;89.30
9816;DHT22;4947;44.526;11.360;2023-03-31T16:03:44;18.70;88.80
9816;DHT22;4947;44.526;11.360;2023-03-31T16:06:19;18.70;88.70
9816;DHT22;4947;44.526;11.360;2023-03-31T16:08:52;18.70;89.40
9816;DHT22;4947;44.526;11.360;2023-03-31T16:11:26;18.70;87.60
9816;DHT22;4947;44.526;11.360;2023-03-31T16:13:57;18.60;88.00
9816;DHT22;4947;44.526;11.360;2023-03-31T16:16:26;18.60;90.10
9816;DHT22;4947;44.526;11.360;2023-03-31T16:19:00;18.60;89.20
9816;DHT22;4947;44.526;11.360;2023-03-31T16:21:34;18.70;87.80
9816;DHT22;4947;44.526;11.360;2023-03-31T16:24:02;18.70;88.90
9816;DHT22;4947;44.526;11.360;2023-03-31T16:26:36;18.60;90.00
9816;DHT22;4947;44.526;11.360;2023-03-31T16:29:05;18.60;88.30
9816;DHT22;4947;44.526;11.360;2023-03-31T16:31:36;18.50;88.00
9816;DHT22;4947;44.526;11.360;2023-03-31T16:34:08;18.40;88.10
9816;DHT22;4947;44.526;11.360;2023-03-31T16:36:37;18.30;88.40
9816;DHT22;4947;44.526;11.360;2023-03-31T16:39:05;18.30;88.90
9816;DHT22;4947;44.526;11.360;2023-03-31T16:41:35;18.20;88.30
9816;DHT22;4947;44.526;11.360;2023-03-31T16:44:05;18.10;88.70
9816;DHT22;4947;44.526;11.360;2023-03-31T16:46:32;18.00;89.30